Edgar, WI (54426)

11:53 PM CST on January 17, 2017 (GMT -0600)
Camp Firewood | | Change Station
Active Advisory: Special Statement

Elev 1306 ft 44.93 °N, 90.00 °W | Updated 30 seconds ago

Mostly Cloudy
Mostly Cloudy
27.7 °F
Feels Like 22 °F
N
4.7
Wind Variable Wind from SW

Today
High -- | Low -- °F
--% Chance of Precip.
Yesterday
High -- | Low -- °F
Precip. -- in
Pressure 29.98 in
Visibility 5.0 miles
Clouds Clear
Windchill 22 °F
Dew Point 28 °F
Humidity 99%
Rainfall 0.00 in
Snow Depth Not available.
7:32 AM 4:47 PM
Waning Gibbous, 66% visible
METAR KAUW 180454Z AUTO 29004KT 5SM BR CLR M02/M02 A2992 RMK AO2 SLP151 T10171017
Pressure 29.98 in
Visibility 5.0 miles
Clouds Clear
Windchill 22 °F
Dew Point 28 °F
Humidity 99%
Rainfall 0.00 in
Snow Depth Not available.
7:32 AM 4:47 PM
Waning Gibbous, 66% visible
METAR KAUW 180454Z AUTO 29004KT 5SM BR CLR M02/M02 A2992 RMK AO2 SLP151 T10171017

Get Your Daily Forecast Email!

Thanks for signing up!

Be on the lookout for a verification email in your inbox.

You'll start receiving the daily forecast at 8 AM.

×

10-Day Weather Forecast

Almanac

Astronomy

Jan. 17, 2017 Rise Set
Actual Time
Civil Twilight
Nautical Twilight
Astronomical Twilight
Moon
Length of Visible Light
Length of Day
Tomorrow will be .
, % of the Moon is Illuminated

Today's Extremes

State Highs State Lows

Community

WunderPhotos

Upload Photos

1,962,540 photos uploaded!

WunderBlog® & News

Nearby

Air Quality

  Air Quality AQ Index Pollutant
Not available.

Snow Depth

Station Depth Elevation

Earthquake Activity

City Distance Mag. Time & Date
Minimum magnitude displayed is 2.5.

Coastal Water Temperatures

Place Temperature

Stations

Nearby Weather Stations

Station Location Temp. Windchill Dew Point Humidity Wind Precip. Elev Updated Type
                   

Watches & Warnings

Special Statement
Issued: 10:35 PM CST Jan. 17, 2017 – National Weather Service

... Areas of dense fog and slick roads tonight...

Clearing skies will allow temperatures to fall below freezing, and
for areas of dense fog to form overnight. Wet roads and sidewalks
will freeze and become slick, and areas of dense fog will reduce
visibility to less than a quarter mile at times. Please travel
with care tonight.


Rdm


1035 PM CST Tue Jan 17 2017

... Areas of dense fog and slick roads tonight...

Clearing skies will allow temperatures to fall below freezing, and
for areas of dense fog to form overnight. Wet roads and sidewalks
will freeze and become slick, and areas of dense fog will reduce
visibility to less than a quarter mile at times. Please travel
with care tonight.


Rdm


1035 PM CST Tue Jan 17 2017

... Areas of dense fog and slick roads tonight...

Clearing skies will allow temperatures to fall below freezing, and
for areas of dense fog to form overnight. Wet roads and sidewalks
will freeze and become slick, and areas of dense fog will reduce
visibility to less than a quarter mile at times. Please travel
with care tonight.


Rdm